Flight Track Log - Related Links

Times and Time Zones

All times are in EDT time to prevent confusion due to time zone crossing. See the VH-KFX flight status page for this flight to view local times or setup timezone preferences in your user account.


Time Position Orientation Groundspeed Altitude Reporting Facility
EDT Latitude Longitude Course Direction KTS MPH feet Rate Location/Type
Fri 05:52:18 AM -20.3820 118.6300 137° Southeast 116 133 100  Level FlightAware ADS-B
Fri 05:52:38 AM -20.3740 118.6210 313° West 128 147 700 1,950 Climbing FlightAware ADS-B
Fri 05:52:40 AM -20.3886 118.5687 60° Northeast 2,100 Descending Aus ATC (Calculated)
Fri 05:52:58 AM -20.3650 118.6120 313° West 130 150 1,400 3,923 Climbing FlightAware ADS-B
Fri 05:53:06 AM -20.3630 118.6080 298° West 130 150 1,700 2,143 Climbing FlightAware ADS-B
Fri 05:53:26 AM -20.3690 118.5960 242° Southwest 138 159 2,400 1,756 Climbing FlightAware ADS-B
Fri 05:53:30 AM -20.4001 118.5075 72° East 200 1,429 Descending Aus ATC (Calculated)
Fri 05:53:47 AM -20.3770 118.5850 232° Southwest 152 175 2,900 5,667 Climbing FlightAware ADS-B
Fri 05:54:06 AM -20.3840 118.5710 232° Southwest 155 178 3,600 1,773 Climbing FlightAware ADS-B
Fri 05:54:30 AM -20.4109 118.4499 78° East 200 1,440 Descending Aus ATC (Calculated)
Fri 05:54:31 AM -20.3910 118.5530 247° West 165 190 4,200 13,800 Climbing FlightAware ADS-B
Fri 05:54:50 AM -20.3940 118.5370 259° West 171 197 4,800 1,846 Climbing FlightAware ADS-B
Fri 05:55:10 AM -20.3970 118.5200 259° West 173 199 5,400 1,800 Climbing FlightAware ADS-B
Fri 05:55:30 AM -20.4010 118.5030 256° West 172 198 6,000 1,857 Climbing FlightAware ADS-B
Fri 05:55:34 AM -20.4213 118.3921 79° East 1,909 Descending Aus ATC (Calculated)
Fri 05:55:52 AM -20.4040 118.4860 259° West 170 196 6,700 10,571 Climbing FlightAware ADS-B
Fri 05:56:16 AM -20.4080 118.4650 259° West 170 196 7,400 1,773 Climbing FlightAware ADS-B
Fri 05:56:29 AM -20.4207 118.3953 80° East 1,800 Descending Aus ATC (Calculated)
Fri 05:56:36 AM -20.4120 118.4490 255° West 172 198 8,000 19,111 Climbing FlightAware ADS-B
Fri 05:56:56 AM -20.4150 118.4330 255° West 171 197 8,600 1,800 Climbing FlightAware ADS-B
Fri 05:57:16 AM -20.4180 118.4160 259° West 168 193 9,200 1,636 Climbing FlightAware ADS-B
Fri 05:57:40 AM -20.4210 118.3960 261° West 173 199 9,800 1,714 Climbing FlightAware ADS-B
Fri 05:58:12 AM -20.4260 118.3690 259° West 167 192 10,800 1,727 Climbing FlightAware ADS-B
Fri 05:58:34 AM -20.4527 118.2218 80° East 1,588 Descending Aus ATC (Calculated)
Fri 05:58:46 AM -20.4320 118.3430 256° West 163 188 11,700 15,360 Climbing FlightAware ADS-B
Fri 05:59:24 AM -20.4370 118.3130 256° West 159 183 12,800 1,622 Climbing FlightAware ADS-B
Fri 06:00:00 AM -20.4420 118.2850 259° West 154 177 13,700 1,500 Climbing FlightAware ADS-B
Fri 06:00:32 AM -20.4460 118.2610 260° West 153 176 14,500 1,324 Climbing FlightAware ADS-B
Fri 06:01:08 AM -20.4510 118.2350 258° West 156 180 15,200 1,250 Climbing FlightAware ADS-B
Fri 06:01:34 AM -20.4858 118.0459 79° East 200 1,333 Descending Aus ATC (Calculated)
Fri 06:01:44 AM -20.4560 118.2080 259° West 159 183 16,000 23,122 Climbing FlightAware ADS-B
Fri 06:02:15 AM -20.4600 118.1810 259° West 186 214 16,000  Level FlightAware ADS-B
Fri 06:02:44 AM -20.4960 117.9906 79° East 200  Descending Aus ATC (Calculated)
Fri 06:02:52 AM -20.4670 118.1460 259° West 203 234 16,000 21,067 Climbing FlightAware ADS-B
Fri 06:03:29 AM -20.4730 118.1090 260° West 207 238 16,000  Level FlightAware ADS-B
Fri 06:04:03 AM -20.4800 118.0750 258° West 205 236 16,000  Level FlightAware ADS-B
Fri 06:04:38 AM -20.4870 118.0390 258° West 204 235 16,000  Level FlightAware ADS-B
Fri 06:05:14 AM -20.4930 118.0050 259° West 204 235 16,000  Level FlightAware ADS-B
Fri 06:05:18 AM -20.5176 117.8727 79° East 200  Descending Aus ATC (Calculated)
Fri 06:05:46 AM -20.4990 117.9730 259° West 204 235 16,000 15,290 Climbing FlightAware ADS-B
Fri 06:06:20 AM -20.5060 117.9380 259° West 205 236 16,000  Level FlightAware ADS-B
Fri 06:06:33 AM -20.5374 117.7569 80° East  Descending Aus ATC (Calculated)
Fri 06:06:58 AM -20.5130 117.9020 259° West 206 237 16,000 15,738 Climbing FlightAware ADS-B
Fri 06:07:34 AM -20.5190 117.8650 260° West 207 238 16,000  Level FlightAware ADS-B
Fri 06:08:06 AM -20.5250 117.8320 259° West 208 239 16,000  Level FlightAware ADS-B
Fri 06:08:44 AM -20.5320 117.7940 259° West 209 241 16,000  Level FlightAware ADS-B
Fri 06:09:16 AM -20.5380 117.7610 259° West 209 241 16,000  Level FlightAware ADS-B
Fri 06:09:52 AM -20.5450 117.7250 258° West 209 241 16,000  Level FlightAware ADS-B
Fri 06:10:28 AM -20.5520 117.6880 259° West 210 242 16,000 -164 Level FlightAware ADS-B
Fri 06:10:58 AM -20.5790 117.5256 80° East -324 Descending Aus ATC (Calculated)
Fri 06:11:05 AM -20.5580 117.6510 260° West 215 247 15,800 22,244 Climbing FlightAware ADS-B
Fri 06:11:30 AM -20.5912 117.4682 79° East 200 -1,059 Descending Aus ATC (Calculated)
Fri 06:11:39 AM -20.5650 117.6140 260° West 233 268 15,200 20,429 Climbing FlightAware ADS-B
Fri 06:12:12 AM -20.5720 117.5750 260° West 243 280 14,500 -1,391 Descending FlightAware ADS-B
Fri 06:12:48 AM -20.5800 117.5310 259° West 249 287 13,600 -1,371 Descending FlightAware ADS-B
Fri 06:13:22 AM -20.5870 117.4900 260° West 255 293 12,900 -1,286 Descending FlightAware ADS-B
Fri 06:13:58 AM -20.5950 117.4450 259° West 259 298 12,100 -1,315 Descending FlightAware ADS-B
Fri 06:13:58 AM -20.6120 117.3526 79° East 200 -1,297 Descending Aus ATC (Calculated)
Fri 06:14:35 AM -20.6040 117.3980 259° West 262 302 11,300 8,583 Climbing FlightAware ADS-B
Fri 06:15:10 AM -20.6120 117.3560 258° West 261 300 10,500 -1,429 Descending FlightAware ADS-B
Fri 06:15:38 AM -20.6190 117.3180 259° West 261 300 9,800 -1,404 Descending FlightAware ADS-B
Fri 06:15:57 AM -20.6230 117.2950 259° West 263 303 9,400 -1,385 Descending FlightAware ADS-B
Fri 06:16:17 AM -20.6270 117.2680 261° West 262 302 8,900 -1,459 Descending FlightAware ADS-B
Fri 06:16:34 AM -20.6310 117.2460 259° West 262 302 8,500 -1,459 Descending FlightAware ADS-B
Fri 06:16:54 AM -20.6360 117.2200 258° West 262 302 8,000 -1,350 Descending FlightAware ADS-B
Fri 06:16:57 AM -20.6409 117.1786 90° East -1,200 Descending Aus ATC (Calculated)
Fri 06:17:14 AM -20.6410 117.1950 258° West 261 300 7,600 13,091 Climbing FlightAware ADS-B
Fri 06:17:30 AM -20.6440 117.1740 258° West 261 300 7,200 -1,412 Descending FlightAware ADS-B
Fri 06:17:48 AM -20.6480 117.1510 259° West 262 302 6,800 -1,263 Descending FlightAware ADS-B
Fri 06:18:08 AM -20.6530 117.1270 257° West 261 300 6,400 -1,429 Descending FlightAware ADS-B
Fri 06:18:30 AM -20.6580 117.0980 260° West 262 302 5,800 -1,435 Descending FlightAware ADS-B
Fri 06:18:54 AM -20.6640 117.0680 258° West 261 300 5,300 -1,395 Descending FlightAware ADS-B
Fri 06:19:13 AM -20.6680 117.0450 259° West 260 299 4,800 -1,459 Descending FlightAware ADS-B
Fri 06:19:31 AM -20.6730 117.0210 257° West 258 297 4,400 -1,286 Descending FlightAware ADS-B
Fri 06:19:55 AM -20.6800 116.9910 256° West 255 293 3,900 -1,277 Descending FlightAware ADS-B
Fri 06:19:57 AM -20.6740 117.0060 252° West 200 -1,304 Descending Aus ATC (Calculated)
Fri 06:20:18 AM -20.6860 116.9660 256° West 250 288 3,400 4,541 Climbing FlightAware ADS-B
Fri 06:20:34 AM -20.6910 116.9450 256° West 239 275 3,000 -1,333 Descending FlightAware ADS-B
Fri 06:20:54 AM -20.6960 116.9240 256° West 218 251 2,600 -511 Descending FlightAware ADS-B
Fri 06:21:21 AM -20.7030 116.9000 253° West 218 251 2,600 -1,000 Level FlightAware ADS-B
Fri 06:22:36 AM -20.7070 116.8350 266° West 133 153 900 -1,152 Descending FlightAware ADS-B
Fri 06:23:00 AM -20.7080 116.8220 265° West 105 121 700 -429 Descending FlightAware ADS-B
Fri 06:23:18 AM -20.7090 116.8130 263° West 92 106 600 -500 Descending FlightAware ADS-B
Fri 06:23:36 AM -20.7100 116.8050 262° West 89 102 400 -571 Descending FlightAware ADS-B
Fri 06:24:00 AM -20.7110 116.7950 264° West 88 101 200 -391 Descending FlightAware ADS-B
Fri 06:24:22 AM -20.7120 116.7850 264° West 86 99 100 -128 Descending FlightAware ADS-B
Fri 06:24:47 AM -20.7130 116.7760 263° West 86 99 100  Level FlightAware ADS-B
Fri 06:27:00 AM -20.7151 116.7739 259° West  Level FlightAware Approximate
Fri 06:28:00 AM -20.7122 116.7733 259° West  Level Estimated
Fri 06:29:00 AM -20.7151 116.7739 259° West  Level FlightAware Approximate
Fri 06:30:00 AM -20.7122 116.7733 259° West  Level Estimated
Fri 06:31:00 AM -20.7151 116.7739 259° West  Level FlightAware Approximate
Fri 06:32:00 AM -20.7122 116.7733 259° West  Level Estimated
Fri 06:33:00 AM -20.7151 116.7739 259° West  Level FlightAware Approximate
Fri 06:34:00 AM -20.7122 116.7733 259° West  Level Estimated
Fri 06:35:00 AM -20.7151 116.7739 259° West  Level FlightAware Approximate
Fri 06:36:00 AM -20.7122 116.7733 259° West  Level Estimated
Fri 06:37:00 AM -20.7151 116.7739 259° West  Level FlightAware Approximate
Fri 06:38:00 AM -20.7122 116.7733 259° West  Level Estimated
Fri 06:39:00 AM -20.7151 116.7739 259° West  Level FlightAware Approximate
Fri 06:40:00 AM -20.7122 116.7733 259° West  Level Estimated
Fri 06:41:00 AM -20.7151 116.7739 259° West  Level FlightAware Approximate
Fri 06:42:00 AM -20.7122 116.7733 259° West  Level Estimated
Fri 06:43:00 AM -20.7151 116.7739 259° West  Level FlightAware Approximate
Fri 06:44:00 AM -20.7122 116.7733 259° West  Level Estimated
Fri 06:45:00 AM -20.7151 116.7739 259° West  Level FlightAware Approximate

Login

Don't have an account? Register now (free) for customized features, flight alerts, and more!